Time;durP1;ratioP1;P1;durP2;ratioP2;P2;SDS_P1;SDS_P2;PMS_P1;PMS_P2;Temp;Humidity;BMP_temperature;BMP_pressure;BME280_temperature;BME280_humidity;BME280_pressure;Samples;Min_cycle;Max_cycle;Signal;HPM_P1;HPM_P2
2022/04/22 00:00:08;;;;;;;7.43;2.33;;;7.30;92.70;;;;;;5090092;28;20432;-66
2022/04/22 00:02:34;;;;;;;5.60;2.47;;;7.20;92.70;;;;;;5091406;28;20429;-66
2022/04/22 00:05:01;;;;;;;8.83;3.50;;;7.20;92.80;;;;;;5093321;28;20430;-67
2022/04/22 00:07:28;;;;;;;5.07;3.13;;;7.20;92.90;;;;;;5095658;28;20657;-68
2022/04/22 00:09:54;;;;;;;3.70;2.20;;;7.20;93.10;;;;;;5091357;28;20423;-67
2022/04/22 00:12:20;;;;;;;4.23;2.80;;;7.20;93.10;;;;;;5086057;28;20441;-69
2022/04/22 00:14:45;;;;;;;15.00;3.03;;;7.20;93.50;;;;;;5086251;28;20469;-69
2022/04/22 00:17:11;;;;;;;4.60;2.47;;;7.10;93.40;;;;;;5085780;28;20235;-68
2022/04/22 00:19:37;;;;;;;5.93;2.67;;;7.10;93.50;;;;;;5086518;28;20259;-65
2022/04/22 00:22:02;;;;;;;10.90;2.70;;;7.00;93.60;;;;;;5086788;28;20207;-68
2022/04/22 00:24:28;;;;;;;5.57;3.20;;;7.00;93.80;;;;;;5088549;28;20219;-67
2022/04/22 00:26:54;;;;;;;6.47;2.93;;;6.90;94.10;;;;;;5087350;28;20265;-67
2022/04/22 00:29:20;;;;;;;6.50;2.50;;;6.90;94.20;;;;;;5087197;28;20188;-68
2022/04/22 00:31:45;;;;;;;4.60;2.73;;;6.80;94.40;;;;;;5085556;28;20180;-66
2022/04/22 00:34:11;;;;;;;7.23;3.00;;;6.80;94.60;;;;;;5085680;28;20834;-67
2022/04/22 00:36:37;;;;;;;5.60;3.30;;;6.70;94.90;;;;;;5085306;28;20215;-66
2022/04/22 00:39:02;;;;;;;9.10;4.17;;;6.60;95.00;;;;;;5083712;28;20192;-68
2022/04/22 00:41:28;;;;;;;5.80;3.23;;;6.50;95.20;;;;;;5088189;28;20192;-68
2022/04/22 00:43:55;;;;;;;9.23;2.77;;;6.40;95.00;;;;;;5089427;28;20253;-68
2022/04/22 00:46:21;;;;;;;5.13;3.50;;;6.30;94.60;;;;;;5088124;28;20195;-68
2022/04/22 00:48:47;;;;;;;8.33;2.80;;;6.20;94.70;;;;;;5086624;28;20434;-68
2022/04/22 00:51:13;;;;;;;4.23;2.30;;;6.10;95.00;;;;;;5085325;28;20188;-65
2022/04/22 00:53:41;;;;;;;12.13;3.37;;;6.00;95.00;;;;;;5090743;28;20464;-65
2022/04/22 00:56:08;;;;;;;6.20;2.73;;;5.90;95.40;;;;;;5091327;28;20476;-67
2022/04/22 00:58:42;;;;;;;5.73;2.70;;;5.80;96.10;;;;;;5084354;28;20429;-68
2022/04/22 01:01:08;;;;;;;6.33;3.23;;;5.80;95.90;;;;;;5084282;28;20487;-65
2022/04/22 01:03:34;;;;;;;6.93;3.07;;;5.70;96.00;;;;;;5085118;28;20530;-65
2022/04/22 01:11:35;;;;;;;4.80;2.70;;;5.60;96.30;;;;;;5081968;28;20791;-65
2022/04/22 01:14:01;;;;;;;7.03;3.27;;;5.50;96.60;;;;;;5086743;28;20460;-64
2022/04/22 01:16:28;;;;;;;4.17;2.50;;;5.50;96.80;;;;;;5088261;28;20472;-64
2022/04/22 01:18:54;;;;;;;5.63;3.47;;;5.40;96.80;;;;;;5085959;28;20450;-64
2022/04/22 01:21:20;;;;;;;4.80;2.70;;;5.40;96.80;;;;;;5086869;28;20503;-64
2022/04/22 01:23:45;;;;;;;5.07;2.50;;;5.30;96.90;;;;;;5091119;28;20187;-65
2022/04/22 01:26:13;;;;;;;7.30;2.80;;;5.30;96.90;;;;;;5094673;28;20192;-65
2022/04/22 01:28:39;;;;;;;5.70;3.10;;;5.30;97.00;;;;;;5090840;28;20199;-65
2022/04/22 01:31:05;;;;;;;5.10;2.67;;;5.30;96.70;;;;;;5094387;28;20433;-65
2022/04/22 01:33:30;;;;;;;6.50;3.53;;;5.20;97.10;;;;;;5093116;28;20441;-65
2022/04/22 01:35:56;;;;;;;4.30;2.70;;;5.10;97.10;;;;;;5095262;28;20215;-64
2022/04/22 01:38:22;;;;;;;5.67;3.60;;;5.00;97.50;;;;;;5087139;28;20209;-66
2022/04/22 01:40:47;;;;;;;4.20;3.07;;;5.00;97.60;;;;;;5087468;28;20192;-67
2022/04/22 01:43:13;;;;;;;8.00;3.37;;;5.00;97.70;;;;;;5090743;28;20215;-66
2022/04/22 01:45:39;;;;;;;7.13;3.27;;;5.00;97.70;;;;;;5090584;28;20187;-66
2022/04/22 01:48:04;;;;;;;5.00;2.83;;;5.00;98.00;;;;;;5090753;28;20215;-65
2022/04/22 01:50:30;;;;;;;5.93;3.00;;;4.90;97.60;;;;;;5088186;28;20215;-66
2022/04/22 01:52:56;;;;;;;7.20;2.73;;;4.90;97.80;;;;;;5092840;28;20279;-67
2022/04/22 01:55:22;;;;;;;5.07;2.63;;;4.80;97.70;;;;;;5093948;28;20786;-66
2022/04/22 01:57:48;;;;;;;5.83;3.60;;;4.80;97.70;;;;;;5087660;28;20344;-66
2022/04/22 02:00:14;;;;;;;6.33;3.43;;;4.80;97.80;;;;;;5088692;28;20446;-66
2022/04/22 02:02:39;;;;;;;9.80;3.20;;;4.80;97.70;;;;;;5095642;28;20224;-66
2022/04/22 02:05:06;;;;;;;6.40;2.60;;;4.80;97.80;;;;;;5086700;28;20184;-66
2022/04/22 02:07:32;;;;;;;6.43;2.93;;;4.70;97.70;;;;;;5089137;28;20321;-65
2022/04/22 02:09:57;;;;;;;7.03;3.33;;;4.60;97.50;;;;;;5087668;28;20430;-65
2022/04/22 02:12:23;;;;;;;12.43;3.70;;;4.50;98.20;;;;;;5096082;28;20813;-67
2022/04/22 02:14:49;;;;;;;9.33;3.27;;;4.50;98.40;;;;;;5093156;28;20211;-65
2022/04/22 02:17:15;;;;;;;5.37;3.37;;;4.50;98.50;;;;;;5084277;28;20218;-66
2022/04/22 02:19:40;;;;;;;7.53;3.23;;;4.50;98.30;;;;;;5086052;28;20550;-65
2022/04/22 02:22:07;;;;;;;6.23;3.07;;;4.50;98.30;;;;;;5087313;28;20184;-65
2022/04/22 02:24:32;;;;;;;5.47;3.20;;;4.50;98.50;;;;;;5093554;28;20199;-65
2022/04/22 02:29:43;;;;;;;5.80;2.93;;;4.40;98.60;;;;;;5090319;28;20309;-66
2022/04/22 02:32:09;;;;;;;7.97;3.47;;;4.40;98.50;;;;;;5091363;28;20901;-66
2022/04/22 02:34:35;;;;;;;6.03;3.70;;;4.30;98.60;;;;;;5092372;28;21080;-67
2022/04/22 02:37:00;;;;;;;8.13;4.00;;;4.30;98.80;;;;;;5092489;28;20450;-65
2022/04/22 02:39:26;;;;;;;10.17;2.83;;;4.30;99.00;;;;;;5086226;28;20269;-67
2022/04/22 02:47:20;;;;;;;4.97;3.17;;;4.10;99.30;;;;;;5086069;28;20540;-66
2022/04/22 02:49:45;;;;;;;6.87;4.33;;;4.10;99.40;;;;;;5085965;28;20429;-65
2022/04/22 02:52:12;;;;;;;7.33;3.90;;;4.00;99.60;;;;;;5087052;28;20196;-66
2022/04/22 02:54:38;;;;;;;5.60;3.57;;;4.00;99.70;;;;;;5086701;28;20995;-66
2022/04/22 02:57:04;;;;;;;7.37;3.40;;;4.00;99.60;;;;;;5088888;28;20441;-66
2022/04/22 02:59:31;;;;;;;8.67;3.70;;;3.90;99.30;;;;;;5086031;28;20273;-65
2022/04/22 03:01:57;;;;;;;12.93;3.90;;;3.90;99.70;;;;;;5085963;28;20465;-67
2022/04/22 03:04:23;;;;;;;7.10;3.93;;;3.90;99.90;;;;;;5086236;28;20429;-66
2022/04/22 03:06:48;;;;;;;7.27;3.80;;;3.80;99.80;;;;;;5085684;28;20430;-65
2022/04/22 03:09:14;;;;;;;6.50;3.70;;;3.90;99.80;;;;;;5086007;28;20220;-65
2022/04/22 03:11:40;;;;;;;5.13;3.47;;;3.90;99.40;;;;;;5089157;28;20215;-65
2022/04/22 03:14:05;;;;;;;8.53;3.90;;;3.90;99.60;;;;;;5090095;28;20188;-66
2022/04/22 03:16:32;;;;;;;7.53;3.80;;;3.90;99.90;;;;;;5093006;28;20226;-66
2022/04/22 03:18:59;;;;;;;13.67;4.27;;;3.90;99.90;;;;;;5091698;28;20222;-66
2022/04/22 03:21:25;;;;;;;7.13;4.20;;;3.90;99.90;;;;;;5093632;28;20948;-66
2022/04/22 03:23:52;;;;;;;8.37;3.97;;;3.90;99.90;;;;;;5083760;28;20442;-66
2022/04/22 03:26:18;;;;;;;9.83;5.17;;;3.80;99.90;;;;;;5088742;28;20461;-66
2022/04/22 03:28:44;;;;;;;5.37;3.60;;;3.70;99.90;;;;;;5089382;28;21130;-66
2022/04/22 03:31:10;;;;;;;10.53;4.83;;;3.70;99.90;;;;;;5088027;28;20506;-66
2022/04/22 03:33:36;;;;;;;8.23;5.50;;;3.80;99.90;;;;;;5084597;28;20862;-66
2022/04/22 03:36:01;;;;;;;8.33;4.30;;;3.80;99.90;;;;;;5092617;28;20243;-66
2022/04/22 03:38:30;;;;;;;7.90;3.73;;;3.80;99.90;;;;;;5099680;28;20212;-66
2022/04/22 03:40:55;;;;;;;9.83;5.13;;;3.80;99.90;;;;;;5092056;28;20188;-66
2022/04/22 03:43:23;;;;;;;8.47;4.00;;;3.70;99.90;;;;;;5084709;28;20537;-67
2022/04/22 03:45:48;;;;;;;7.10;4.00;;;3.70;99.90;;;;;;5085119;28;20180;-66
2022/04/22 03:48:14;;;;;;;8.73;4.30;;;3.70;99.90;;;;;;5086429;28;20461;-64
2022/04/22 03:50:40;;;;;;;9.67;5.00;;;3.60;99.90;;;;;;5086118;28;20188;-66
2022/04/22 03:53:08;;;;;;;6.60;4.30;;;3.60;99.90;;;;;;5086832;28;20206;-66
2022/04/22 03:55:34;;;;;;;8.97;4.10;;;3.50;99.90;;;;;;5086405;28;20474;-66
2022/04/22 03:58:12;;;;;;;7.87;4.73;;;3.60;99.90;;;;;;5087376;28;20857;-66
2022/04/22 04:00:48;;;;;;;10.70;4.60;;;3.50;99.90;;;;;;5089819;28;20207;-65
2022/04/22 04:03:15;;;;;;;9.00;4.13;;;3.40;99.90;;;;;;5086092;28;20928;-65
2022/04/22 04:05:48;;;;;;;7.20;4.40;;;3.40;99.90;;;;;;5087221;28;20422;-66
2022/04/22 04:08:15;;;;;;;8.90;4.20;;;3.40;99.90;;;;;;5086519;28;20438;-65
2022/04/22 04:16:09;;;;;;;8.50;3.80;;;3.40;99.90;;;;;;5092281;28;21498;-64
2022/04/22 04:18:40;;;;;;;8.07;4.50;;;3.40;99.90;;;;;;5091914;28;20425;-66
2022/04/22 04:23:53;;;;;;;8.47;5.33;;;3.20;99.90;;;;;;5088034;28;20429;-66
2022/04/22 04:26:21;;;;;;;10.33;4.80;;;3.20;99.90;;;;;;5090815;28;20433;-67
2022/04/22 04:28:48;;;;;;;13.53;5.07;;;3.20;99.90;;;;;;5094066;28;21085;-65
2022/04/22 04:31:14;;;;;;;7.47;4.30;;;3.20;99.90;;;;;;5090758;28;20467;-67
2022/04/22 04:33:41;;;;;;;11.33;5.90;;;3.20;99.90;;;;;;5093505;28;20437;-67
2022/04/22 04:36:11;;;;;;;8.60;4.63;;;3.30;99.90;;;;;;5088015;28;20462;-67
2022/04/22 04:38:42;;;;;;;8.43;4.17;;;3.20;99.90;;;;;;5086195;28;20418;-66
2022/04/22 04:41:09;;;;;;;9.40;5.10;;;3.20;99.90;;;;;;5085696;28;20426;-67
2022/04/22 04:43:38;;;;;;;9.30;4.87;;;3.30;99.90;;;;;;5085403;28;20454;-66
2022/04/22 04:46:04;;;;;;;6.70;4.03;;;3.30;99.90;;;;;;5086307;28;20559;-65
2022/04/22 04:48:29;;;;;;;9.30;4.73;;;3.30;99.90;;;;;;5083073;28;20522;-66
2022/04/22 04:50:55;;;;;;;8.63;4.67;;;3.30;99.90;;;;;;5088089;28;20917;-66
2022/04/22 04:53:23;;;;;;;8.63;4.40;;;3.30;99.90;;;;;;5085129;28;20192;-66
2022/04/22 04:55:50;;;;;;;11.30;5.57;;;3.30;99.90;;;;;;5093322;28;20591;-66
2022/04/22 04:58:16;;;;;;;13.03;5.57;;;3.40;99.90;;;;;;5090999;28;21050;-66
2022/04/22 05:00:44;;;;;;;10.17;5.70;;;3.40;99.90;;;;;;5094682;28;20422;-66
2022/04/22 05:03:11;;;;;;;10.97;5.00;;;3.40;99.90;;;;;;5091796;28;20903;-65
2022/04/22 05:05:36;;;;;;;12.23;4.63;;;3.40;99.90;;;;;;5095085;28;20483;-66
2022/04/22 05:08:02;;;;;;;11.30;5.70;;;3.50;99.90;;;;;;5092518;28;20458;-66
2022/04/22 05:10:30;;;;;;;9.40;5.23;;;3.50;99.90;;;;;;5087713;28;20928;-65
2022/04/22 05:12:56;;;;;;;8.00;4.40;;;3.50;99.90;;;;;;5093474;28;21317;-67
2022/04/22 05:15:23;;;;;;;13.70;6.90;;;3.60;99.90;;;;;;5091242;28;20478;-66
2022/04/22 05:17:49;;;;;;;12.07;6.30;;;3.60;99.90;;;;;;5088788;28;20537;-66
2022/04/22 05:20:17;;;;;;;11.57;5.90;;;3.70;99.90;;;;;;5091671;28;20426;-66
2022/04/22 05:22:42;;;;;;;13.77;6.57;;;3.70;99.90;;;;;;5093846;28;20959;-66
2022/04/22 05:25:10;;;;;;;12.03;5.73;;;3.80;99.90;;;;;;5094644;28;20436;-65
2022/04/22 05:27:36;;;;;;;17.23;6.53;;;3.90;99.90;;;;;;5093015;28;20290;-66
2022/04/22 05:32:49;;;;;;;13.77;6.87;;;4.00;99.90;;;;;;5088940;28;21121;-65
2022/04/22 05:35:16;;;;;;;13.73;6.20;;;4.10;99.90;;;;;;5088488;28;20462;-66
2022/04/22 05:38:02;;;;;;;15.80;6.67;;;4.20;99.90;;;;;;5088208;28;20929;-66
2022/04/22 05:40:30;;;;;;;13.93;6.73;;;4.30;99.90;;;;;;5087239;28;20886;-67
2022/04/22 05:42:57;;;;;;;12.53;6.10;;;4.40;99.90;;;;;;5090383;28;20450;-67
2022/04/22 05:45:23;;;;;;;16.30;6.57;;;4.40;99.90;;;;;;5089170;28;20448;-66
2022/04/22 05:47:53;;;;;;;21.17;8.50;;;4.60;99.90;;;;;;5087597;28;20453;-67
2022/04/22 05:50:20;;;;;;;21.63;9.63;;;4.70;99.90;;;;;;5087897;28;20433;-66
2022/04/22 05:52:47;;;;;;;22.40;11.37;;;4.90;99.90;;;;;;5088936;28;20797;-67
2022/04/22 05:55:19;;;;;;;27.67;12.70;;;5.10;99.90;;;;;;5089492;28;20470;-66
2022/04/22 05:57:46;;;;;;;21.90;11.63;;;5.30;99.90;;;;;;5092531;28;20446;-66
2022/04/22 06:00:14;;;;;;;22.67;11.30;;;5.50;99.90;;;;;;5092774;28;20442;-67
2022/04/22 06:02:46;;;;;;;28.63;10.30;;;5.70;99.90;;;;;;5093025;28;20495;-66
2022/04/22 06:05:16;;;;;;;22.67;10.37;;;5.80;99.90;;;;;;5090554;28;20465;-66
2022/04/22 06:07:43;;;;;;;22.53;10.27;;;5.90;99.90;;;;;;5092764;28;20457;-65
2022/04/22 06:12:54;;;;;;;26.00;10.20;;;6.10;99.90;;;;;;5093714;28;20413;-64
2022/04/22 06:15:21;;;;;;;31.23;11.80;;;6.20;99.90;;;;;;5098439;28;20461;-65
2022/04/22 06:17:46;;;;;;;29.13;12.40;;;6.30;99.90;;;;;;5087096;28;20207;-66
2022/04/22 06:20:13;;;;;;;21.97;10.97;;;6.40;99.90;;;;;;5086059;28;20518;-67
2022/04/22 06:22:39;;;;;;;24.47;11.33;;;6.60;99.90;;;;;;5087805;28;20929;-65
2022/04/22 06:25:05;;;;;;;22.40;11.47;;;6.60;99.90;;;;;;5087754;28;20433;-66
2022/04/22 06:27:37;;;;;;;25.27;10.83;;;6.70;99.90;;;;;;5082819;28;20218;-65
2022/04/22 06:30:12;;;;;;;21.07;10.90;;;6.70;99.90;;;;;;5086406;28;20426;-67
2022/04/22 06:32:39;;;;;;;26.17;11.20;;;6.80;99.90;;;;;;5088335;28;20429;-65
2022/04/22 06:35:06;;;;;;;20.27;10.50;;;6.90;99.90;;;;;;5088163;28;21019;-67
2022/04/22 06:37:40;;;;;;;23.43;10.97;;;7.00;99.90;;;;;;5088773;28;20470;-67
2022/04/22 06:45:47;;;;;;;22.67;9.63;;;7.60;99.90;;;;;;5089648;28;20858;-68
2022/04/22 06:48:17;;;;;;;30.73;11.87;;;7.70;99.90;;;;;;5086297;28;20449;-66
2022/04/22 06:50:53;;;;;;;25.53;11.10;;;7.80;99.90;;;;;;5090515;28;20932;-67
2022/04/22 06:53:19;;;;;;;25.13;11.10;;;7.90;99.90;;;;;;5090344;28;20421;-68
2022/04/22 06:55:48;;;;;;;22.10;10.57;;;8.00;99.90;;;;;;5090414;28;20476;-68
2022/04/22 06:58:17;;;;;;;19.77;8.73;;;8.10;99.90;;;;;;5088579;28;20446;-64
2022/04/22 07:00:44;;;;;;;25.10;10.60;;;8.30;99.90;;;;;;5086031;28;20464;-66
2022/04/22 07:03:12;;;;;;;22.60;10.07;;;8.50;99.50;;;;;;5086088;28;20866;-65
2022/04/22 07:05:39;;;;;;;21.73;10.20;;;8.60;98.80;;;;;;5085091;28;20427;-66
2022/04/22 07:08:06;;;;;;;19.73;9.70;;;9.00;98.30;;;;;;5086732;28;21286;-64
2022/04/22 07:10:35;;;;;;;17.47;9.57;;;9.30;97.60;;;;;;5096933;28;20436;-65
2022/04/22 07:13:02;;;;;;;21.30;9.90;;;9.40;96.80;;;;;;5094044;28;20485;-66
2022/04/22 07:15:28;;;;;;;20.40;9.83;;;9.70;96.40;;;;;;5091604;28;20469;-64
2022/04/22 07:17:54;;;;;;;23.03;10.60;;;10.10;95.40;;;;;;5086069;28;20450;-65
2022/04/22 07:20:21;;;;;;;28.13;10.10;;;10.40;94.70;;;;;;5085218;28;20505;-65
2022/04/22 07:22:47;;;;;;;20.70;9.50;;;10.70;94.00;;;;;;5086438;28;20460;-65
2022/04/22 07:25:14;;;;;;;16.90;8.80;;;11.00;93.30;;;;;;5086757;28;20486;-65
2022/04/22 07:27:43;;;;;;;20.87;8.73;;;11.30;92.50;;;;;;5087869;28;20580;-66
2022/04/22 07:30:11;;;;;;;20.33;8.93;;;12.20;91.90;;;;;;5085014;28;20411;-66
2022/04/22 07:32:37;;;;;;;15.00;8.70;;;12.80;90.50;;;;;;5087456;28;20426;-66
2022/04/22 07:35:11;;;;;;;16.53;7.03;;;14.10;85.60;;;;;;5087248;28;20571;-65
2022/04/22 07:37:38;;;;;;;14.10;7.40;;;14.00;83.70;;;;;;5090195;28;21030;-66
2022/04/22 07:40:04;;;;;;;17.90;8.37;;;14.70;82.10;;;;;;5087472;28;20414;-65
2022/04/22 07:42:33;;;;;;;16.83;8.97;;;14.30;82.30;;;;;;5088688;28;20566;-65
2022/04/22 07:47:47;;;;;;;16.63;7.47;;;15.90;77.60;;;;;;5088746;28;20452;-67
2022/04/22 07:50:14;;;;;;;13.80;7.73;;;16.70;74.60;;;;;;5101875;27;20541;-66
2022/04/22 07:52:40;;;;;;;14.37;8.73;;;16.60;72.90;;;;;;5088557;28;20418;-66
2022/04/22 07:55:06;;;;;;;11.37;6.97;;;15.70;76.30;;;;;;5090231;28;20565;-66
2022/04/22 07:57:32;;;;;;;17.97;8.27;;;16.30;75.90;;;;;;5088774;28;20304;-66
2022/04/22 07:59:58;;;;;;;15.17;8.43;;;17.00;72.90;;;;;;5084904;28;20415;-66
2022/04/22 08:02:24;;;;;;;19.70;8.20;;;17.70;71.00;;;;;;5094381;28;20188;-66
2022/04/22 08:04:50;;;;;;;13.67;7.70;;;17.80;68.70;;;;;;5086460;28;20192;-65
2022/04/22 08:07:18;;;;;;;11.43;7.00;;;17.90;69.10;;;;;;5089729;28;20503;-66
2022/04/22 08:09:45;;;;;;;12.80;6.87;;;17.90;69.10;;;;;;5092116;28;20414;-65
2022/04/22 08:12:12;;;;;;;15.17;7.67;;;17.60;68.00;;;;;;5096573;28;20968;-66
2022/04/22 08:14:41;;;;;;;17.53;8.00;;;17.50;69.40;;;;;;5085128;28;20430;-64
2022/04/22 08:17:07;;;;;;;13.77;7.43;;;17.00;70.60;;;;;;5084988;28;20818;-66
2022/04/22 08:19:33;;;;;;;17.00;7.50;;;17.00;71.40;;;;;;5084990;28;20422;-65
2022/04/22 08:21:59;;;;;;;14.93;7.50;;;17.10;72.00;;;;;;5085485;28;20418;-65
2022/04/22 08:24:25;;;;;;;19.83;8.80;;;17.30;70.50;;;;;;5087608;28;20774;-66
2022/04/22 08:26:51;;;;;;;20.33;7.67;;;17.20;69.80;;;;;;5086699;28;20212;-66
2022/04/22 08:29:17;;;;;;;12.97;7.70;;;17.70;69.00;;;;;;5089807;28;20580;-66
2022/04/22 08:31:44;;;;;;;12.27;7.20;;;18.50;66.30;;;;;;5095679;28;20583;-66
2022/04/22 08:34:11;;;;;;;15.43;8.40;;;18.90;64.20;;;;;;5091455;28;20916;-64
2022/04/22 08:36:36;;;;;;;13.00;7.53;;;18.30;65.90;;;;;;5084476;28;20476;-65
2022/04/22 08:39:04;;;;;;;13.03;7.53;;;18.00;66.60;;;;;;5091400;28;20433;-65
2022/04/22 08:41:35;;;;;;;16.83;7.13;;;18.20;66.70;;;;;;5089288;28;20271;-65
2022/04/22 08:44:01;;;;;;;15.00;7.80;;;18.50;65.00;;;;;;5084657;28;20441;-65
2022/04/22 08:51:56;;;;;;;12.80;7.60;;;18.40;66.20;;;;;;5096066;28;20481;-65
2022/04/22 08:54:26;;;;;;;12.07;6.93;;;18.30;66.50;;;;;;5093231;28;20433;-65
2022/04/22 08:56:52;;;;;;;13.13;6.50;;;18.00;68.40;;;;;;5089907;28;20465;-65
2022/04/22 08:59:18;;;;;;;12.70;7.47;;;18.50;65.30;;;;;;5095284;27;20426;-66
2022/04/22 09:01:44;;;;;;;19.53;7.20;;;18.10;66.50;;;;;;5094237;28;20424;-66
2022/04/22 09:04:10;;;;;;;15.77;6.90;;;18.20;65.90;;;;;;5096485;28;20901;-65
2022/04/22 09:06:37;;;;;;;11.73;7.00;;;18.60;64.50;;;;;;5092690;28;20686;-66
2022/04/22 09:09:07;;;;;;;13.50;6.80;;;17.60;67.30;;;;;;5088329;28;20199;-66
2022/04/22 09:11:37;;;;;;;14.97;7.47;;;17.40;67.70;;;;;;5090409;28;20917;-69
2022/04/22 09:14:03;;;;;;;13.57;7.50;;;17.50;68.60;;;;;;5097763;28;20890;-67
2022/04/22 09:16:29;;;;;;;16.30;6.87;;;18.00;66.40;;;;;;5097274;28;20564;-66
2022/04/22 09:19:00;;;;;;;11.10;6.97;;;17.60;66.10;;;;;;5091255;28;20916;-65
2022/04/22 09:21:26;;;;;;;13.40;6.80;;;17.70;66.90;;;;;;5088404;28;20176;-66
2022/04/22 09:23:53;;;;;;;13.20;6.90;;;17.60;67.40;;;;;;5089280;28;20497;-65
2022/04/22 09:26:22;;;;;;;16.17;6.30;;;17.80;66.90;;;;;;5095501;28;20205;-65
2022/04/22 09:29:05;;;;;;;12.00;7.03;;;17.70;65.70;;;;;;5087684;28;21290;-65
2022/04/22 09:31:45;;;;;;;15.60;7.33;;;17.60;65.90;;;;;;5089367;28;20437;-64
2022/04/22 09:34:11;;;;;;;18.93;7.87;;;17.70;67.20;;;;;;5090091;28;20426;-65
2022/04/22 09:44:55;;;;;;;13.50;7.20;;;17.30;69.00;;;;;;5090193;28;20421;-66
2022/04/22 09:47:21;;;;;;;14.07;6.67;;;17.80;66.50;;;;;;5088808;28;20880;-66
2022/04/22 09:49:47;;;;;;;20.23;7.80;;;17.50;67.90;;;;;;5088638;28;20462;-64
2022/04/22 09:52:12;;;;;;;15.63;7.37;;;17.20;69.20;;;;;;5092216;28;20192;-65
2022/04/22 09:54:38;;;;;;;14.83;6.07;;;16.60;70.00;;;;;;5092610;28;20192;-67
2022/04/22 09:57:05;;;;;;;18.63;8.33;;;16.70;72.50;;;;;;5094335;28;20298;-67
2022/04/22 09:59:32;;;;;;;13.33;6.57;;;16.40;72.90;;;;;;5088602;28;20431;-67
2022/04/22 10:02:00;;;;;;;13.17;8.10;;;16.60;72.10;;;;;;5090094;28;20466;-67
2022/04/22 10:04:30;;;;;;;13.10;7.10;;;16.60;69.90;;;;;;5095142;28;20968;-67
2022/04/22 10:06:59;;;;;;;19.80;8.33;;;16.10;72.00;;;;;;5085356;28;21028;-67
2022/04/22 10:09:26;;;;;;;15.47;7.30;;;16.10;72.60;;;;;;5092111;28;20828;-66
2022/04/22 10:11:54;;;;;;;23.80;8.67;;;16.00;74.20;;;;;;5104000;27;20438;-67
2022/04/22 10:14:35;;;;;;;14.70;8.43;;;15.90;75.00;;;;;;5093022;28;20937;-67
2022/04/22 10:17:03;;;;;;;22.00;8.00;;;16.00;73.50;;;;;;5079086;28;20454;-65
2022/04/22 10:19:32;;;;;;;20.13;8.93;;;15.80;72.70;;;;;;5080553;28;20901;-66
2022/04/22 10:21:59;;;;;;;15.43;7.67;;;15.80;73.80;;;;;;5087588;28;20422;-67
2022/04/22 10:24:26;;;;;;;14.63;8.33;;;16.10;73.00;;;;;;5079789;28;20494;-67
2022/04/22 10:26:52;;;;;;;16.23;7.00;;;16.10;73.10;;;;;;5085298;28;20489;-68
2022/04/22 10:29:19;;;;;;;14.27;7.87;;;15.80;73.00;;;;;;5086017;28;20814;-68
2022/04/22 10:31:45;;;;;;;14.70;8.30;;;15.80;73.00;;;;;;5086887;28;20479;-66
2022/04/22 10:34:11;;;;;;;19.53;8.03;;;15.60;72.80;;;;;;5089315;28;20832;-65
2022/04/22 10:36:38;;;;;;;18.77;7.73;;;15.20;75.10;;;;;;5084187;28;20212;-66
2022/04/22 10:39:04;;;;;;;13.90;7.43;;;15.60;75.00;;;;;;5089573;28;20187;-68
2022/04/22 10:41:44;;;;;;;14.37;7.67;;;15.60;73.80;;;;;;5089569;28;20957;-67
2022/04/22 10:47:13;;;;;;;15.27;8.23;;;15.70;73.30;;;;;;5088102;28;20523;-66
2022/04/22 10:49:46;;;;;;;14.23;7.20;;;15.80;75.10;;;;;;5083850;28;20929;-66
2022/04/22 10:52:17;;;;;;;16.80;6.43;;;15.90;73.10;;;;;;5087406;28;21062;-66
2022/04/22 10:54:52;;;;;;;17.83;7.60;;;16.00;72.50;;;;;;5090298;28;20442;-66
2022/04/22 10:57:23;;;;;;;14.47;7.43;;;16.00;72.50;;;;;;5090795;28;20468;-67
2022/04/22 11:00:07;;;;;;;16.63;8.30;;;16.00;73.20;;;;;;5091018;28;21158;-66
2022/04/22 11:02:40;;;;;;;14.03;7.90;;;15.70;75.80;;;;;;5091765;28;20433;-66
2022/04/22 11:05:20;;;;;;;12.37;6.43;;;16.10;73.00;;;;;;5086754;28;20440;-66
2022/04/22 11:07:53;;;;;;;14.00;7.57;;;16.20;72.70;;;;;;5089943;28;20434;-66
2022/04/22 11:10:20;;;;;;;11.87;6.83;;;16.00;73.40;;;;;;5086745;28;20497;-65
2022/04/22 11:12:58;;;;;;;12.80;6.80;;;16.20;73.00;;;;;;5086173;28;20423;-66
2022/04/22 11:15:42;;;;;;;18.73;8.30;;;16.30;71.90;;;;;;5086434;28;20865;-66
2022/04/22 11:18:12;;;;;;;16.60;7.37;;;16.00;72.30;;;;;;5085733;28;20446;-67
2022/04/22 11:20:38;;;;;;;13.60;7.20;;;16.30;73.10;;;;;;5086133;28;20433;-66
2022/04/22 11:23:09;;;;;;;13.30;7.23;;;16.40;72.20;;;;;;5088488;28;20426;-66
2022/04/22 11:25:34;;;;;;;14.10;6.90;;;16.60;71.10;;;;;;5088236;28;20430;-67
2022/04/22 11:28:02;;;;;;;11.30;6.73;;;16.60;70.90;;;;;;5089005;28;20973;-66
2022/04/22 11:30:29;;;;;;;19.00;8.70;;;16.70;73.50;;;;;;5084354;28;20268;-66
2022/04/22 11:33:13;;;;;;;9.80;6.00;;;16.70;72.30;;;;;;5095677;28;20504;-66
2022/04/22 11:35:39;;;;;;;13.13;6.80;;;16.70;73.30;;;;;;5091902;28;20497;-66
2022/04/22 11:38:05;;;;;;;19.03;7.60;;;17.00;71.20;;;;;;5093529;28;20458;-65
2022/04/22 11:40:40;;;;;;;11.97;6.47;;;17.00;71.70;;;;;;5090248;28;20878;-66
2022/04/22 11:43:14;;;;;;;14.43;7.13;;;16.80;70.40;;;;;;5086313;28;20477;-66
2022/04/22 11:45:50;;;;;;;46.70;8.23;;;17.00;71.60;;;;;;5092005;28;20476;-66
2022/04/22 11:48:21;;;;;;;13.67;6.60;;;16.90;69.70;;;;;;5085290;28;20438;-65
2022/04/22 11:50:47;;;;;;;12.03;6.73;;;16.90;71.50;;;;;;5085368;28;20446;-66
2022/04/22 11:53:14;;;;;;;15.27;6.77;;;16.80;71.60;;;;;;5086747;28;20438;-66
2022/04/22 11:55:43;;;;;;;14.50;6.83;;;17.00;71.00;;;;;;5085657;28;20480;-66
2022/04/22 11:58:16;;;;;;;13.63;6.70;;;17.30;71.20;;;;;;5087863;28;20446;-66
2022/04/22 12:06:17;;;;;;;10.20;6.33;;;17.40;72.60;;;;;;5085930;28;20559;-66
2022/04/22 12:09:09;;;;;;;12.13;7.30;;;17.30;72.30;;;;;;5086113;28;20434;-66
2022/04/22 12:11:41;;;;;;;11.03;5.60;;;17.70;69.90;;;;;;5096373;28;20960;-66
2022/04/22 12:14:07;;;;;;;14.97;7.70;;;17.90;70.30;;;;;;5091525;28;20447;-66
2022/04/22 12:16:33;;;;;;;10.50;6.03;;;18.10;68.60;;;;;;5086171;28;20886;-66
2022/04/22 12:19:00;;;;;;;14.20;6.23;;;18.00;73.00;;;;;;5088661;28;20195;-65
2022/04/22 12:21:27;;;;;;;14.30;6.40;;;18.10;70.50;;;;;;5087860;28;20196;-64
2022/04/22 12:24:00;;;;;;;11.30;5.50;;;18.30;68.30;;;;;;5089711;28;20407;-66
2022/04/22 12:26:27;;;;;;;12.67;5.90;;;18.30;70.00;;;;;;5094446;28;21272;-65
2022/04/22 12:29:16;;;;;;;12.97;7.10;;;18.20;70.60;;;;;;5088416;28;20530;-65
2022/04/22 12:31:43;;;;;;;14.37;6.83;;;18.40;68.40;;;;;;5097605;28;20425;-65
2022/04/22 12:34:15;;;;;;;15.43;6.73;;;18.50;68.80;;;;;;5100936;28;20424;-65
2022/04/22 12:36:54;;;;;;;12.27;6.47;;;18.70;67.50;;;;;;5082408;28;20477;-66
2022/04/22 12:39:33;;;;;;;13.57;5.70;;;18.70;67.50;;;;;;5085830;28;20422;-65
2022/04/22 12:41:58;;;;;;;30.83;6.67;;;18.50;68.80;;;;;;5089564;28;20436;-65
2022/04/22 12:44:25;;;;;;;11.10;6.00;;;18.10;70.80;;;;;;5101023;28;20478;-65
2022/04/22 12:52:25;;;;;;;10.23;5.80;;;18.40;66.70;;;;;;5100739;28;20413;-66
2022/04/22 12:55:01;;;;;;;13.20;6.93;;;18.60;67.20;;;;;;5091006;28;20414;-65
2022/04/22 12:57:27;;;;;;;9.30;5.30;;;19.10;65.90;;;;;;5088070;28;20511;-65
2022/04/22 12:59:54;;;;;;;10.70;5.50;;;18.70;65.60;;;;;;5084531;28;20438;-65
2022/04/22 13:02:32;;;;;;;10.90;5.93;;;18.40;66.60;;;;;;5097720;28;20185;-65
2022/04/22 13:04:59;;;;;;;23.03;5.20;;;18.20;67.50;;;;;;5097347;28;21183;-65
2022/04/22 13:07:37;;;;;;;8.40;5.37;;;18.30;67.50;;;;;;5106641;28;21127;-66
2022/04/22 13:10:04;;;;;;;12.07;5.73;;;18.60;67.30;;;;;;5108659;28;21157;-69
2022/04/22 13:12:29;;;;;;;10.33;5.90;;;18.60;68.80;;;;;;5094424;28;20433;-68
2022/04/22 13:14:55;;;;;;;13.40;5.87;;;18.80;67.20;;;;;;5095456;27;20487;-66
2022/04/22 13:17:24;;;;;;;10.93;6.00;;;18.60;65.60;;;;;;5121022;27;20214;-66
2022/04/22 13:19:50;;;;;;;15.43;8.00;;;18.30;68.30;;;;;;5112963;27;20186;-72
2022/04/22 13:22:16;;;;;;;11.60;6.00;;;18.20;69.30;;;;;;5111516;27;20422;-67
2022/04/22 13:24:44;;;;;;;7.47;4.50;;;18.30;70.20;;;;;;5108311;27;20503;-67
2022/04/22 13:27:13;;;;;;;10.07;6.17;;;18.60;67.10;;;;;;5122735;27;20444;-67
2022/04/22 13:29:40;;;;;;;10.50;4.80;;;18.90;66.20;;;;;;5120152;27;20464;-66
2022/04/22 13:32:06;;;;;;;12.07;5.73;;;18.90;65.80;;;;;;5128850;27;20448;-66
2022/04/22 13:34:32;;;;;;;13.20;5.37;;;18.70;67.60;;;;;;5127259;27;20428;-67
2022/04/22 13:36:58;;;;;;;10.17;5.10;;;19.20;66.30;;;;;;5126333;27;20471;-66
2022/04/22 13:39:23;;;;;;;7.73;4.97;;;19.20;65.50;;;;;;5128202;27;20670;-67
2022/04/22 13:41:49;;;;;;;11.50;5.47;;;19.00;66.20;;;;;;5125036;27;20999;-66
2022/04/22 13:52:21;;;;;;;12.57;5.30;;;18.90;66.10;;;;;;5123342;27;20279;-67
2022/04/22 13:52:28;;;;;;;10.97;5.53;;;19.10;65.30;;;;;;5125414;27;20427;-66
2022/04/22 13:54:54;;;;;;;9.80;5.00;;;18.60;67.80;;;;;;5107042;27;20433;-65
2022/04/22 13:57:20;;;;;;;10.07;5.20;;;18.60;67.30;;;;;;5111430;27;20206;-67